Time;durP1;ratioP1;P1;durP2;ratioP2;P2;SDS_P1;SDS_P2;PMS_P1;PMS_P2;Temp;Humidity;BMP_temperature;BMP_pressure;BME280_temperature;BME280_humidity;BME280_pressure;Samples;Min_cycle;Max_cycle;Signal;HPM_P1;HPM_P2
2022/10/04 00:01:43;;;;;;;20.95;12.18;;;13.30;91.70;;;;;;5112656;28;20043;-81
2022/10/04 00:04:18;;;;;;;19.20;10.77;;;13.30;91.40;;;;;;5095724;28;20046;-81
2022/10/04 00:06:58;;;;;;;20.45;10.93;;;13.30;91.30;;;;;;5112541;28;20500;-82
2022/10/04 00:09:40;;;;;;;17.80;11.68;;;13.30;91.40;;;;;;5112502;28;20441;-81
2022/10/04 00:12:16;;;;;;;15.80;10.82;;;13.30;91.20;;;;;;5095556;28;20031;-82
2022/10/04 00:14:42;;;;;;;20.27;10.20;;;13.30;91.70;;;;;;5095649;28;20373;-82
2022/10/04 00:17:17;;;;;;;20.92;12.45;;;13.30;91.60;;;;;;5112397;28;20036;-82
2022/10/04 00:19:51;;;;;;;25.92;11.77;;;13.30;92.00;;;;;;5112361;28;20040;-82
2022/10/04 00:22:22;;;;;;;21.58;11.02;;;13.20;91.90;;;;;;5095068;28;20051;-81
2022/10/04 00:25:08;;;;;;;22.73;11.50;;;13.20;91.70;;;;;;5095372;28;20031;-82
2022/10/04 00:27:39;;;;;;;26.50;12.45;;;13.30;91.60;;;;;;5095146;28;20039;-82
2022/10/04 00:30:05;;;;;;;19.02;12.13;;;13.30;91.60;;;;;;5112165;28;20044;-82
2022/10/04 00:32:30;;;;;;;16.63;10.93;;;13.20;91.80;;;;;;5095194;28;20142;-82
2022/10/04 00:34:58;;;;;;;20.15;11.48;;;13.20;91.50;;;;;;5095273;28;20044;-82
2022/10/04 00:37:26;;;;;;;22.55;11.52;;;13.20;91.60;;;;;;5095209;28;20035;-83
2022/10/04 00:40:04;;;;;;;18.83;11.18;;;13.20;91.90;;;;;;5078172;28;20039;-83
2022/10/04 00:42:35;;;;;;;16.65;10.93;;;13.20;91.70;;;;;;5112370;28;20043;-82
2022/10/04 00:45:36;;;;;;;15.10;10.60;;;13.20;91.50;;;;;;5095270;28;20039;-83
2022/10/04 00:48:08;;;;;;;22.33;11.73;;;13.20;91.40;;;;;;5041269;28;20057;-83
2022/10/04 00:50:38;;;;;;;17.50;9.90;;;13.10;91.60;;;;;;5111998;28;20065;-81
2022/10/04 00:53:17;;;;;;;21.45;10.18;;;13.20;91.30;;;;;;5112066;28;20047;-82
2022/10/04 00:55:53;;;;;;;23.35;11.10;;;13.20;91.30;;;;;;5095100;28;20078;-83
2022/10/04 00:58:28;;;;;;;16.73;10.55;;;13.10;91.30;;;;;;5094991;28;20043;-82
2022/10/04 01:00:56;;;;;;;17.27;9.98;;;13.10;91.30;;;;;;5112121;28;20071;-82
2022/10/04 01:03:29;;;;;;;19.27;11.32;;;13.10;91.30;;;;;;5078434;28;20036;-82
2022/10/04 01:05:59;;;;;;;18.77;11.02;;;13.10;91.40;;;;;;5111887;28;20050;-81
2022/10/04 01:08:34;;;;;;;19.02;11.30;;;13.10;91.20;;;;;;5094814;28;20086;-81
2022/10/04 01:11:10;;;;;;;23.20;12.25;;;13.10;91.30;;;;;;5095078;28;20044;-82
2022/10/04 01:13:40;;;;;;;17.88;11.85;;;13.10;91.30;;;;;;5094861;28;20036;-81
2022/10/04 01:16:38;;;;;;;18.50;11.90;;;13.00;91.50;;;;;;5095075;28;20035;-82
2022/10/04 01:19:25;;;;;;;16.55;9.18;;;13.10;91.60;;;;;;5050952;28;20043;-82
2022/10/04 01:22:09;;;;;;;17.23;10.52;;;13.10;91.50;;;;;;5095107;28;20032;-82
2022/10/04 01:24:44;;;;;;;18.50;9.70;;;13.10;91.30;;;;;;5111956;28;20036;-82
2022/10/04 01:27:28;;;;;;;20.45;11.82;;;13.00;91.30;;;;;;5112066;28;20373;-82
2022/10/04 01:29:54;;;;;;;21.67;10.60;;;13.00;91.40;;;;;;5094633;28;20376;-82
2022/10/04 01:32:21;;;;;;;19.85;11.23;;;13.00;91.50;;;;;;5078150;28;20038;-83
2022/10/04 01:34:47;;;;;;;21.75;12.60;;;13.00;91.50;;;;;;5114077;28;20075;-82
2022/10/04 01:37:13;;;;;;;19.55;11.45;;;12.90;91.70;;;;;;5081491;28;20093;-83
2022/10/04 01:39:39;;;;;;;19.23;12.02;;;12.80;91.70;;;;;;5098542;28;20050;-82
2022/10/04 01:42:04;;;;;;;20.80;13.00;;;12.80;91.50;;;;;;5098105;28;20575;-82
2022/10/04 01:44:36;;;;;;;17.80;11.02;;;12.70;91.70;;;;;;5098125;28;20056;-82
2022/10/04 01:47:07;;;;;;;21.05;12.05;;;12.70;91.60;;;;;;5098512;28;20040;-83
2022/10/04 01:49:37;;;;;;;18.65;11.85;;;12.70;91.60;;;;;;5098013;28;20492;-83
2022/10/04 01:52:40;;;;;;;20.13;11.93;;;12.60;91.90;;;;;;5098046;28;20050;-83
2022/10/04 01:55:19;;;;;;;19.75;11.25;;;12.50;92.10;;;;;;5073301;28;20040;-83
2022/10/04 01:57:53;;;;;;;24.15;12.20;;;12.50;91.90;;;;;;5098293;28;20032;-84
2022/10/04 02:00:21;;;;;;;19.25;12.25;;;12.50;91.80;;;;;;5097945;28;20040;-82
2022/10/04 02:03:14;;;;;;;15.00;10.35;;;12.50;91.70;;;;;;5097950;28;20511;-82
2022/10/04 02:06:02;;;;;;;16.13;9.65;;;12.50;91.60;;;;;;5114860;28;20044;-82
2022/10/04 02:08:32;;;;;;;23.30;11.73;;;12.40;91.50;;;;;;5097585;28;20138;-83
2022/10/04 02:11:00;;;;;;;23.05;11.73;;;12.40;91.50;;;;;;5114649;28;20115;-82
2022/10/04 02:13:32;;;;;;;19.35;10.02;;;12.40;91.50;;;;;;5097870;28;20058;-82
2022/10/04 02:15:58;;;;;;;20.35;10.25;;;12.30;91.40;;;;;;5097611;28;20046;-83
2022/10/04 02:18:26;;;;;;;20.27;11.65;;;12.30;91.40;;;;;;5114824;28;20035;-83
2022/10/04 02:20:53;;;;;;;21.38;12.52;;;12.30;91.40;;;;;;5097457;28;20039;-82
2022/10/04 02:23:21;;;;;;;16.10;11.38;;;12.20;91.30;;;;;;5097613;28;20451;-82
2022/10/04 02:25:47;;;;;;;20.27;10.52;;;12.20;91.70;;;;;;5097647;28;20039;-83
2022/10/04 02:28:15;;;;;;;19.88;11.98;;;12.10;91.80;;;;;;5097422;28;20465;-83
2022/10/04 02:32:56;;;;;;;20.20;10.93;;;12.10;91.90;;;;;;5114526;28;20036;-82
2022/10/04 02:33:32;;;;;;;17.92;11.40;;;12.00;91.80;;;;;;5114577;28;20202;-82
2022/10/04 02:35:58;;;;;;;20.80;12.43;;;12.00;91.90;;;;;;5080401;28;20036;-84
2022/10/04 02:38:32;;;;;;;23.13;12.18;;;12.00;92.10;;;;;;5097655;28;20089;-84
2022/10/04 02:41:01;;;;;;;24.42;12.05;;;12.00;92.00;;;;;;5096979;28;20059;-84
2022/10/04 02:43:38;;;;;;;26.05;12.43;;;11.90;92.30;;;;;;5097194;28;20495;-84
2022/10/04 02:46:06;;;;;;;31.52;13.95;;;11.90;92.00;;;;;;5096953;28;20126;-83
2022/10/04 02:48:59;;;;;;;20.48;11.95;;;11.90;91.80;;;;;;5114101;28;20547;-83
2022/10/04 02:51:33;;;;;;;22.83;12.93;;;11.80;91.80;;;;;;5097223;28;20092;-83
2022/10/04 02:54:20;;;;;;;23.23;13.05;;;11.80;91.80;;;;;;5096890;28;20127;-84
2022/10/04 02:56:52;;;;;;;19.15;9.25;;;11.80;91.90;;;;;;5113849;28;20544;-82
2022/10/04 02:59:21;;;;;;;22.13;10.05;;;11.70;91.80;;;;;;5080988;28;20047;-84
2022/10/04 03:01:53;;;;;;;18.02;11.73;;;11.70;91.70;;;;;;5096705;28;20122;-82
2022/10/04 03:04:26;;;;;;;19.25;11.75;;;11.60;91.70;;;;;;5113923;28;20474;-83
2022/10/04 03:06:54;;;;;;;19.58;11.20;;;11.60;91.60;;;;;;5096601;28;20088;-82
2022/10/04 03:09:22;;;;;;;16.17;9.48;;;11.50;91.50;;;;;;5096426;28;20039;-84
2022/10/04 03:11:50;;;;;;;19.00;11.23;;;11.50;91.60;;;;;;5079690;28;20078;-82
2022/10/04 03:14:20;;;;;;;22.58;12.30;;;11.50;91.60;;;;;;5113783;28;20455;-84
2022/10/04 03:16:48;;;;;;;13.65;9.05;;;11.50;91.60;;;;;;5113429;28;20047;-83
2022/10/04 03:19:17;;;;;;;16.73;10.93;;;11.50;91.60;;;;;;5096379;28;20089;-85
2022/10/04 03:21:46;;;;;;;21.60;12.85;;;11.40;91.80;;;;;;5113463;28;20062;-84
2022/10/04 03:24:22;;;;;;;22.92;11.85;;;11.40;91.90;;;;;;5113343;28;20047;-83
2022/10/04 03:26:56;;;;;;;15.05;9.13;;;11.40;91.70;;;;;;5096255;28;20096;-84
2022/10/04 03:29:25;;;;;;;25.88;13.52;;;11.40;91.70;;;;;;5113107;28;20043;-84
2022/10/04 03:31:57;;;;;;;16.80;10.68;;;11.40;91.70;;;;;;5096114;28;20035;-84
2022/10/04 03:34:46;;;;;;;18.33;10.75;;;11.30;91.70;;;;;;5113094;28;20118;-82
2022/10/04 03:37:15;;;;;;;16.67;9.80;;;11.30;91.90;;;;;;5113317;28;20388;-83
2022/10/04 03:39:44;;;;;;;18.35;11.73;;;11.30;92.00;;;;;;5096168;28;20040;-82
2022/10/04 03:42:39;;;;;;;24.88;14.63;;;11.30;92.10;;;;;;5112903;28;20055;-84
2022/10/04 03:45:16;;;;;;;20.55;12.60;;;11.30;92.00;;;;;;5112875;28;20050;-83
2022/10/04 03:47:49;;;;;;;23.05;14.88;;;11.20;91.90;;;;;;5113046;28;20097;-83
2022/10/04 03:50:23;;;;;;;28.53;15.63;;;11.30;92.00;;;;;;5112858;28;20039;-83
2022/10/04 03:53:00;;;;;;;18.27;12.85;;;11.20;92.40;;;;;;5095768;28;20054;-84
2022/10/04 03:55:43;;;;;;;24.75;15.45;;;11.20;92.40;;;;;;5112702;28;20035;-84
2022/10/04 03:58:17;;;;;;;33.22;15.55;;;11.20;92.70;;;;;;5095332;28;20045;-84
2022/10/04 04:01:05;;;;;;;22.83;14.32;;;11.20;92.70;;;;;;5095630;28;20492;-83
2022/10/04 04:03:42;;;;;;;26.50;15.50;;;11.20;92.40;;;;;;5078180;28;20420;-82
2022/10/04 04:06:15;;;;;;;19.63;14.90;;;11.20;92.20;;;;;;5112853;28;20044;-84
2022/10/04 04:08:43;;;;;;;20.77;14.38;;;11.20;92.50;;;;;;5112393;28;20101;-84
2022/10/04 04:11:22;;;;;;;22.10;14.20;;;11.10;92.40;;;;;;5112748;28;20042;-83
2022/10/04 04:14:25;;;;;;;26.42;15.82;;;11.20;92.40;;;;;;5095714;28;20031;-83
2022/10/04 04:17:14;;;;;;;28.42;17.00;;;11.10;92.80;;;;;;5070318;28;20126;-84
2022/10/04 04:19:41;;;;;;;21.88;13.55;;;11.10;92.90;;;;;;5112354;28;20079;-84
2022/10/04 04:22:14;;;;;;;21.60;15.27;;;11.00;92.80;;;;;;5078874;28;20395;-82
2022/10/04 04:24:42;;;;;;;26.08;17.73;;;11.00;92.60;;;;;;5095582;28;20043;-83
2022/10/04 04:27:09;;;;;;;29.63;16.88;;;11.00;92.50;;;;;;5112535;28;20048;-82
2022/10/04 04:29:52;;;;;;;29.33;16.02;;;11.00;92.70;;;;;;5095139;28;20039;-81
2022/10/04 04:32:32;;;;;;;30.77;17.08;;;11.00;92.60;;;;;;5095221;28;20078;-82
2022/10/04 04:35:05;;;;;;;26.77;16.83;;;11.00;92.70;;;;;;5112219;28;20032;-81
2022/10/04 04:37:32;;;;;;;29.17;16.60;;;10.90;92.70;;;;;;5112485;28;20047;-82
2022/10/04 04:40:17;;;;;;;25.13;17.48;;;11.00;92.50;;;;;;5094966;28;20403;-81
2022/10/04 04:42:44;;;;;;;26.88;18.38;;;10.90;92.50;;;;;;5112188;28;20039;-82
2022/10/04 04:45:18;;;;;;;29.67;18.85;;;10.90;92.60;;;;;;5112055;28;20043;-82
2022/10/04 04:47:57;;;;;;;22.48;15.20;;;10.90;92.70;;;;;;5112067;28;20039;-82
2022/10/04 04:50:30;;;;;;;25.60;16.92;;;10.80;92.70;;;;;;5112133;28;20050;-81
2022/10/04 04:53:21;;;;;;;31.88;20.83;;;10.80;92.80;;;;;;5112051;28;20502;-83
2022/10/04 04:55:58;;;;;;;24.65;16.55;;;10.80;92.90;;;;;;5095357;28;20043;-81
2022/10/04 04:58:31;;;;;;;28.25;18.52;;;10.80;92.70;;;;;;5111953;28;20628;-81
2022/10/04 05:01:05;;;;;;;23.95;18.65;;;10.90;92.70;;;;;;5112205;28;20050;-82
2022/10/04 05:03:32;;;;;;;31.17;19.60;;;10.80;92.80;;;;;;5095013;28;20048;-82
2022/10/04 05:06:03;;;;;;;20.85;14.77;;;10.80;92.90;;;;;;5095148;28;20107;-81
2022/10/04 05:08:31;;;;;;;28.10;17.85;;;10.80;92.80;;;;;;5112256;28;20047;-83
2022/10/04 05:11:02;;;;;;;30.45;20.25;;;10.80;92.70;;;;;;5098787;28;20036;-81
2022/10/04 05:13:51;;;;;;;32.03;20.65;;;10.80;92.80;;;;;;5098837;28;20050;-83
2022/10/04 05:16:43;;;;;;;30.40;19.55;;;10.80;93.10;;;;;;5098818;28;20122;-83
2022/10/04 05:19:31;;;;;;;29.85;18.13;;;10.70;93.80;;;;;;5098921;28;20075;-82
2022/10/04 05:22:06;;;;;;;28.85;17.30;;;10.70;93.50;;;;;;5098675;28;20543;-82
2022/10/04 05:24:41;;;;;;;28.73;20.35;;;10.70;93.20;;;;;;5115682;28;20047;-82
2022/10/04 05:27:25;;;;;;;27.80;19.67;;;10.70;93.40;;;;;;5115630;28;20039;-82
2022/10/04 05:30:03;;;;;;;26.65;17.52;;;10.70;93.40;;;;;;5098410;28;20040;-82
2022/10/04 05:32:29;;;;;;;30.52;19.55;;;10.70;93.30;;;;;;5098540;28;20063;-81
2022/10/04 05:34:55;;;;;;;28.88;20.63;;;10.70;93.30;;;;;;5098716;28;20047;-82
2022/10/04 05:37:24;;;;;;;35.05;20.80;;;10.70;93.40;;;;;;5081591;28;20104;-82
2022/10/04 05:40:21;;;;;;;27.80;19.42;;;10.70;93.50;;;;;;5115231;28;20203;-84
2022/10/04 05:42:50;;;;;;;30.27;19.88;;;10.70;93.50;;;;;;5115478;28;20066;-82
2022/10/04 05:45:30;;;;;;;27.85;19.23;;;10.70;93.40;;;;;;5115197;28;20046;-82
2022/10/04 05:47:59;;;;;;;29.77;19.45;;;10.70;93.20;;;;;;5080772;28;20046;-81
2022/10/04 05:50:40;;;;;;;29.60;20.33;;;10.70;93.60;;;;;;5081258;28;20040;-81
2022/10/04 05:53:23;;;;;;;28.35;17.92;;;10.70;93.60;;;;;;5098013;28;20487;-81
2022/10/04 05:56:20;;;;;;;24.75;16.67;;;10.70;93.40;;;;;;5115127;28;20036;-82
2022/10/04 05:58:54;;;;;;;27.23;18.00;;;10.70;93.20;;;;;;5097782;28;20043;-82
2022/10/04 06:01:39;;;;;;;26.10;20.40;;;10.70;93.20;;;;;;5114897;28;20040;-81
2022/10/04 06:04:27;;;;;;;38.08;21.90;;;10.70;93.60;;;;;;5114931;28;20043;-82
2022/10/04 06:07:15;;;;;;;30.10;18.58;;;10.60;93.40;;;;;;5115164;28;20079;-81
2022/10/04 06:09:50;;;;;;;31.80;18.83;;;10.60;93.30;;;;;;5114644;28;20043;-83
2022/10/04 06:12:45;;;;;;;28.50;20.02;;;10.60;93.40;;;;;;5098008;28;20508;-82
2022/10/04 06:15:26;;;;;;;29.30;19.50;;;10.60;93.60;;;;;;5114805;28;20095;-82
2022/10/04 06:18:01;;;;;;;35.45;20.83;;;10.60;93.80;;;;;;5097673;28;20040;-82
2022/10/04 06:20:44;;;;;;;27.48;21.17;;;10.60;93.80;;;;;;5097010;28;20043;-83
2022/10/04 06:23:17;;;;;;;25.25;19.77;;;10.50;93.90;;;;;;5097622;28;20043;-80
2022/10/04 06:26:18;;;;;;;30.95;20.25;;;10.60;94.00;;;;;;5080682;28;20071;-82
2022/10/04 06:28:53;;;;;;;25.17;16.73;;;10.60;93.70;;;;;;5110189;28;20263;-82
2022/10/04 06:31:37;;;;;;;27.33;20.83;;;10.60;94.00;;;;;;5114073;28;20027;-81
2022/10/04 06:34:32;;;;;;;26.48;18.10;;;10.60;94.10;;;;;;5094264;28;20480;-81
2022/10/04 06:37:35;;;;;;;32.70;19.38;;;10.60;94.00;;;;;;5093913;28;20377;-81
2022/10/04 06:40:27;;;;;;;27.60;20.10;;;10.60;94.00;;;;;;5076650;28;20507;-81
2022/10/04 06:43:12;;;;;;;24.02;17.52;;;10.60;93.90;;;;;;5076912;28;20089;-80
2022/10/04 06:45:57;;;;;;;29.67;20.17;;;10.60;93.70;;;;;;5093675;28;20507;-80
2022/10/04 06:48:45;;;;;;;25.25;18.58;;;10.60;93.40;;;;;;5093811;28;20044;-80
2022/10/04 06:51:29;;;;;;;29.95;21.23;;;10.70;93.40;;;;;;5076668;28;20480;-80
2022/10/04 06:54:22;;;;;;;32.75;21.75;;;10.70;93.50;;;;;;5093790;28;20048;-80
2022/10/04 06:57:21;;;;;;;27.33;18.88;;;10.80;93.90;;;;;;5106444;27;20696;-80
2022/10/04 06:59:59;;;;;;;32.50;19.58;;;10.90;93.60;;;;;;5105652;27;20058;-80
2022/10/04 07:02:30;;;;;;;32.03;20.67;;;10.90;93.80;;;;;;5106600;28;20051;-79
2022/10/04 07:05:30;;;;;;;27.60;18.00;;;11.00;94.10;;;;;;5088037;28;20047;-81
2022/10/04 07:08:30;;;;;;;30.02;19.23;;;11.10;93.80;;;;;;5071228;28;20147;-80
2022/10/04 07:11:13;;;;;;;30.88;19.83;;;11.10;93.80;;;;;;5104690;28;20035;-78
2022/10/04 07:14:04;;;;;;;28.25;19.77;;;11.20;93.90;;;;;;5106756;28;20065;-81
2022/10/04 07:16:48;;;;;;;27.05;19.10;;;11.30;93.70;;;;;;5089254;28;20035;-80
2022/10/04 07:19:23;;;;;;;24.27;18.75;;;11.40;94.00;;;;;;5089493;28;20052;-79
2022/10/04 07:21:55;;;;;;;27.00;19.52;;;11.40;93.70;;;;;;5089208;28;20044;-82
2022/10/04 07:24:50;;;;;;;26.95;20.42;;;11.50;93.80;;;;;;5090407;28;20040;-81
2022/10/04 07:27:21;;;;;;;26.88;19.55;;;11.50;93.80;;;;;;5100640;27;20054;-80
2022/10/04 07:29:55;;;;;;;25.88;19.00;;;11.50;93.80;;;;;;5089077;28;20040;-80
2022/10/04 07:32:26;;;;;;;25.47;17.83;;;11.50;93.80;;;;;;5105118;28;20431;-80
2022/10/04 07:34:57;;;;;;;25.65;16.92;;;11.50;93.70;;;;;;5085658;28;20589;-79
2022/10/04 07:37:26;;;;;;;23.60;17.30;;;11.50;93.60;;;;;;5087702;28;20414;-80
2022/10/04 07:40:08;;;;;;;31.60;17.33;;;11.60;93.30;;;;;;5105905;28;20043;-82
2022/10/04 07:42:41;;;;;;;24.58;17.00;;;11.60;93.30;;;;;;5105261;28;20130;-82
2022/10/04 07:45:24;;;;;;;22.30;16.83;;;11.60;93.20;;;;;;5103761;28;20066;-80
2022/10/04 07:47:50;;;;;;;25.27;16.13;;;11.60;93.10;;;;;;5089561;28;20282;-82
2022/10/04 07:50:28;;;;;;;22.52;16.48;;;11.60;93.10;;;;;;5088562;28;20046;-80
2022/10/04 07:53:09;;;;;;;26.52;17.52;;;11.70;93.20;;;;;;5104228;28;20096;-79
2022/10/04 07:55:41;;;;;;;24.40;17.05;;;11.80;93.10;;;;;;5104342;27;20044;-79
2022/10/04 07:58:46;;;;;;;26.20;16.98;;;11.80;93.10;;;;;;5105531;28;20053;-81
2022/10/04 08:01:26;;;;;;;24.15;16.85;;;12.00;93.10;;;;;;5084025;28;20179;-79
2022/10/04 08:04:05;;;;;;;21.25;17.10;;;12.00;93.00;;;;;;5087146;28;20444;-80
2022/10/04 08:06:37;;;;;;;22.13;16.05;;;12.20;92.90;;;;;;5105899;27;20051;-78
2022/10/04 08:09:21;;;;;;;23.60;16.10;;;12.30;92.70;;;;;;5105535;28;20199;-79
2022/10/04 08:12:05;;;;;;;21.77;15.05;;;12.50;92.50;;;;;;5106056;28;20031;-80
2022/10/04 08:15:03;;;;;;;26.92;17.33;;;12.60;92.30;;;;;;5082289;28;20047;-79
2022/10/04 08:17:53;;;;;;;23.00;15.63;;;12.70;91.90;;;;;;5082305;28;20052;-81
2022/10/04 08:20:34;;;;;;;18.75;14.13;;;12.90;91.60;;;;;;5081348;28;20510;-81
2022/10/04 08:23:05;;;;;;;22.65;16.58;;;13.00;91.10;;;;;;5082313;28;20587;-78
2022/10/04 08:25:49;;;;;;;24.95;17.23;;;13.00;90.60;;;;;;5080247;28;20122;-77
2022/10/04 08:31:54;;;;;;;21.15;15.35;;;13.30;90.30;;;;;;5099840;28;20078;-79
2022/10/04 08:34:52;;;;;;;19.85;14.20;;;13.40;90.10;;;;;;5103877;28;20043;-81
2022/10/04 08:38:03;;;;;;;22.98;15.85;;;13.50;89.40;;;;;;5105102;28;20036;-79
2022/10/04 08:40:56;;;;;;;19.05;14.65;;;13.50;89.20;;;;;;5063889;28;20090;-82
2022/10/04 08:43:44;;;;;;;18.65;15.20;;;13.70;89.10;;;;;;5106495;28;20075;-81
2022/10/04 08:46:22;;;;;;;20.88;14.25;;;13.70;88.40;;;;;;5090498;28;20031;-82
2022/10/04 08:49:18;;;;;;;23.42;15.30;;;13.90;88.10;;;;;;5091750;28;20044;-81
2022/10/04 08:51:55;;;;;;;20.95;14.90;;;13.90;87.50;;;;;;5092804;28;20045;-80
2022/10/04 08:54:41;;;;;;;24.10;15.15;;;14.00;88.00;;;;;;5090036;28;20043;-80
2022/10/04 08:57:11;;;;;;;23.08;15.45;;;14.10;88.00;;;;;;5109793;27;20039;-79
2022/10/04 09:00:00;;;;;;;28.25;16.05;;;14.20;88.00;;;;;;5091802;28;20054;-81
2022/10/04 09:02:53;;;;;;;23.15;16.00;;;14.20;87.10;;;;;;5107548;28;20054;-82
2022/10/04 09:05:28;;;;;;;23.45;15.57;;;14.30;86.90;;;;;;5107641;28;20513;-82
2022/10/04 09:08:29;;;;;;;21.10;15.50;;;14.30;86.70;;;;;;5092569;28;20039;-79
2022/10/04 09:11:32;;;;;;;29.48;15.93;;;14.50;87.20;;;;;;5082333;28;20054;-80
2022/10/04 09:13:57;;;;;;;26.52;17.02;;;14.50;86.00;;;;;;5090587;28;20039;-79
2022/10/04 09:16:46;;;;;;;23.55;16.83;;;14.50;85.40;;;;;;5107621;27;20031;-80
2022/10/04 09:19:18;;;;;;;24.55;16.70;;;14.50;85.70;;;;;;5108730;28;20047;-79
2022/10/04 09:21:56;;;;;;;20.52;15.18;;;14.60;85.90;;;;;;5092090;28;20078;-81
2022/10/04 09:24:33;;;;;;;18.80;15.52;;;14.60;85.00;;;;;;5109288;28;20075;-81
2022/10/04 09:27:09;;;;;;;26.20;17.35;;;14.60;85.20;;;;;;5090544;28;20039;-83
2022/10/04 09:30:36;;;;;;;23.88;17.90;;;14.60;85.20;;;;;;5090820;28;20058;-81
2022/10/04 09:33:24;;;;;;;25.20;17.08;;;14.60;85.00;;;;;;5066249;28;20074;-80
2022/10/04 09:36:14;;;;;;;25.98;16.98;;;14.70;84.80;;;;;;5108749;27;20074;-81
2022/10/04 09:38:43;;;;;;;23.17;16.63;;;14.90;85.30;;;;;;5091291;28;20040;-81
2022/10/04 09:41:46;;;;;;;22.17;16.83;;;14.90;85.00;;;;;;5108618;28;20529;-82
2022/10/04 09:44:42;;;;;;;24.38;17.15;;;14.90;84.50;;;;;;5091699;28;20052;-81
2022/10/04 09:47:36;;;;;;;27.33;16.38;;;15.00;84.50;;;;;;5071980;28;20059;-80
2022/10/04 09:50:25;;;;;;;23.60;16.45;;;15.00;84.70;;;;;;5107215;28;20055;-83
2022/10/04 09:53:09;;;;;;;22.38;16.20;;;15.00;84.60;;;;;;5108428;28;20035;-82
2022/10/04 09:55:54;;;;;;;;;;;14.80;84.60;;;;;;5089130;28;20040;-83
2022/10/04 09:58:57;;;;;;;23.63;15.93;;;14.90;84.30;;;;;;5090504;28;19964;-83
2022/10/04 10:01:39;;;;;;;19.40;13.98;;;15.00;84.20;;;;;;5106707;28;20055;-83
2022/10/04 10:04:27;;;;;;;23.58;15.65;;;15.00;84.20;;;;;;5091082;28;20507;-81
2022/10/04 10:07:15;;;;;;;21.55;15.65;;;15.00;84.30;;;;;;5107689;27;20495;-82
2022/10/04 10:16:18;;;;;;;23.40;15.63;;;14.90;84.50;;;;;;5104349;28;20050;-84
2022/10/04 10:19:14;;;;;;;26.30;16.52;;;15.00;84.90;;;;;;5090164;28;20048;-85
2022/10/04 10:21:55;;;;;;;21.27;13.55;;;15.00;84.60;;;;;;5106059;28;20050;-83
2022/10/04 10:24:42;;;;;;;18.15;13.15;;;15.20;84.40;;;;;;5106285;28;20579;-83
2022/10/04 10:27:24;;;;;;;18.30;13.38;;;15.40;83.60;;;;;;5104676;28;20049;-84
2022/10/04 10:29:58;;;;;;;17.95;13.70;;;15.60;83.00;;;;;;5090219;28;20040;-84
2022/10/04 10:32:42;;;;;;;19.15;12.98;;;15.60;81.90;;;;;;5088494;28;20448;-83
2022/10/04 10:35:23;;;;;;;17.80;12.88;;;15.80;82.50;;;;;;5088750;28;20059;-84
2022/10/04 10:38:05;;;;;;;17.80;12.40;;;15.70;81.90;;;;;;5108247;28;20491;-83
2022/10/04 10:40:45;;;;;;;20.88;12.75;;;15.80;82.10;;;;;;5089965;28;20051;-83
2022/10/04 10:43:41;;;;;;;17.50;12.65;;;16.00;82.40;;;;;;5107553;28;20043;-83
2022/10/04 10:46:10;;;;;;;16.95;11.68;;;16.20;81.60;;;;;;5106224;27;20091;-82
2022/10/04 10:48:48;;;;;;;16.63;11.32;;;16.30;81.10;;;;;;5090129;28;20508;-84
2022/10/04 10:51:41;;;;;;;17.45;12.32;;;16.30;80.60;;;;;;5107608;28;20043;-83
2022/10/04 10:54:29;;;;;;;18.65;11.18;;;16.40;80.70;;;;;;5096377;28;20039;-83
2022/10/04 10:57:41;;;;;;;15.20;9.80;;;16.60;79.60;;;;;;5112113;27;20480;-82
2022/10/04 11:00:19;;;;;;;16.70;11.85;;;16.60;78.20;;;;;;5013345;28;20659;-84
2022/10/04 11:02:54;;;;;;;14.60;10.48;;;16.70;78.80;;;;;;5081253;28;20070;-83
2022/10/04 11:05:44;;;;;;;13.02;9.82;;;16.80;79.20;;;;;;5110692;28;20047;-83
2022/10/04 11:08:47;;;;;;;17.63;11.13;;;16.70;78.00;;;;;;5110988;28;20054;-83
2022/10/04 11:11:42;;;;;;;15.73;10.70;;;16.90;77.50;;;;;;5093636;28;20031;-82
2022/10/04 11:14:48;;;;;;;13.45;10.18;;;16.90;77.00;;;;;;5110637;28;20078;-83
2022/10/04 11:17:19;;;;;;;16.08;10.85;;;16.90;77.30;;;;;;5112082;27;20051;-83
2022/10/04 11:20:23;;;;;;;15.15;10.73;;;16.70;76.90;;;;;;5111478;28;20046;-83
2022/10/04 11:23:10;;;;;;;18.80;11.75;;;16.60;77.30;;;;;;5094471;28;20043;-82
2022/10/04 11:25:58;;;;;;;15.82;11.93;;;16.80;77.90;;;;;;5110820;27;20079;-82
2022/10/04 11:28:59;;;;;;;13.98;10.30;;;16.50;78.50;;;;;;5092900;28;21278;-83
2022/10/04 11:32:00;;;;;;;13.88;11.15;;;16.70;78.30;;;;;;5089162;28;20093;-83
2022/10/04 11:34:45;;;;;;;12.85;8.98;;;16.40;78.40;;;;;;5062377;28;20498;-83
2022/10/04 11:37:32;;;;;;;13.88;8.77;;;16.40;78.60;;;;;;5106251;27;20464;-83
2022/10/04 11:40:22;;;;;;;14.00;10.55;;;16.50;78.30;;;;;;5105134;28;20075;-82
2022/10/04 11:43:17;;;;;;;18.17;12.15;;;16.60;78.50;;;;;;5089517;28;20059;-82
2022/10/04 11:46:03;;;;;;;16.98;11.90;;;16.60;78.40;;;;;;5105670;27;20062;-81
2022/10/04 11:48:41;;;;;;;15.68;10.93;;;16.50;78.20;;;;;;5088942;28;20044;-81
2022/10/04 11:51:39;;;;;;;16.50;10.18;;;16.80;78.70;;;;;;5088323;28;20043;-83
2022/10/04 11:54:26;;;;;;;14.25;10.57;;;17.00;77.80;;;;;;5088500;28;20048;-84
2022/10/04 11:57:06;;;;;;;16.55;11.45;;;17.30;76.70;;;;;;5104820;27;20040;-83
2022/10/04 11:59:53;;;;;;;13.88;10.25;;;17.30;76.30;;;;;;5087699;28;20151;-83
2022/10/04 12:02:27;;;;;;;15.48;10.48;;;17.40;75.40;;;;;;5104948;28;20130;-83
2022/10/04 12:05:15;;;;;;;13.52;9.93;;;17.50;75.50;;;;;;5104740;28;20060;-83
2022/10/04 12:08:31;;;;;;;13.52;9.40;;;17.70;75.80;;;;;;5087899;28;20499;-84
2022/10/04 12:14:49;;;;;;;14.93;9.43;;;17.80;74.80;;;;;;5105616;28;20043;-82
2022/10/04 12:17:54;;;;;;;14.73;9.48;;;18.00;73.50;;;;;;5105421;27;20120;-83
2022/10/04 12:20:55;;;;;;;14.10;9.65;;;17.90;74.20;;;;;;5105379;28;20096;-83
2022/10/04 12:23:55;;;;;;;12.98;9.13;;;18.00;73.90;;;;;;5105370;28;20072;-82
2022/10/04 12:27:02;;;;;;;13.15;8.50;;;18.20;74.00;;;;;;5103190;28;20039;-83
2022/10/04 12:30:05;;;;;;;13.52;8.82;;;18.20;73.90;;;;;;5059066;28;20163;-83
2022/10/04 12:32:46;;;;;;;12.05;8.43;;;18.40;73.10;;;;;;5104095;28;20051;-83
2022/10/04 12:35:33;;;;;;;10.43;7.60;;;18.20;72.40;;;;;;5104509;28;20499;-83
2022/10/04 12:38:23;;;;;;;11.80;7.97;;;17.90;73.00;;;;;;5087135;28;20035;-83
2022/10/04 12:40:58;;;;;;;10.45;8.38;;;18.10;73.30;;;;;;5051007;28;20091;-86
2022/10/04 12:43:39;;;;;;;11.07;7.40;;;18.10;73.00;;;;;;5087978;28;20051;-84
2022/10/04 12:46:43;;;;;;;11.40;7.45;;;18.20;70.90;;;;;;5104045;28;20050;-85
2022/10/04 12:49:21;;;;;;;9.35;6.80;;;18.40;72.10;;;;;;5087880;28;20096;-83
2022/10/04 12:51:55;;;;;;;13.27;7.72;;;18.70;71.80;;;;;;5087761;28;20154;-84
2022/10/04 12:55:03;;;;;;;10.63;7.28;;;18.60;70.10;;;;;;5087265;28;20044;-85
2022/10/04 12:57:54;;;;;;;11.40;8.13;;;18.90;69.50;;;;;;5087012;28;20147;-84
2022/10/04 13:00:27;;;;;;;10.57;6.28;;;18.70;69.10;;;;;;5087411;28;20135;-82
2022/10/04 13:03:17;;;;;;;12.15;6.38;;;18.60;69.90;;;;;;5103201;28;20054;-81
2022/10/04 13:05:46;;;;;;;8.35;5.85;;;18.50;67.50;;;;;;5088842;28;20083;-81
2022/10/04 13:08:18;;;;;;;8.82;6.35;;;18.70;67.90;;;;;;5105260;28;20055;-81
2022/10/04 13:11:20;;;;;;;7.93;6.13;;;18.80;67.70;;;;;;5104530;28;20043;-81
2022/10/04 13:14:24;;;;;;;6.60;5.50;;;18.70;67.30;;;;;;5104899;28;20044;-80
2022/10/04 13:17:05;;;;;;;9.63;6.55;;;18.60;66.90;;;;;;5086397;28;20051;-80
2022/10/04 13:19:40;;;;;;;8.68;6.18;;;18.60;67.40;;;;;;5103784;28;20050;-79
2022/10/04 13:22:32;;;;;;;9.90;6.25;;;18.90;67.50;;;;;;5104579;28;20047;-80
2022/10/04 13:25:34;;;;;;;6.78;5.47;;;19.00;66.10;;;;;;5101942;28;20043;-79
2022/10/04 13:28:09;;;;;;;9.23;5.40;;;18.60;65.40;;;;;;5103757;28;20043;-79
2022/10/04 13:30:59;;;;;;;10.25;6.82;;;18.80;66.90;;;;;;5106430;28;20047;-79
2022/10/04 13:33:32;;;;;;;9.13;6.00;;;18.50;66.80;;;;;;5091662;28;20472;-80
2022/10/04 13:36:15;;;;;;;8.57;5.88;;;18.60;68.30;;;;;;5090975;27;20167;-80
2022/10/04 13:38:57;;;;;;;9.05;6.07;;;18.80;67.70;;;;;;5091652;28;20093;-80
2022/10/04 13:41:35;;;;;;;6.30;5.30;;;18.80;67.40;;;;;;5107638;28;20063;-79
2022/10/04 13:44:05;;;;;;;11.23;6.00;;;18.60;67.10;;;;;;5107274;28;20096;-80
2022/10/04 13:46:57;;;;;;;8.30;5.13;;;18.70;67.30;;;;;;5106742;28;20488;-80
2022/10/04 13:49:26;;;;;;;12.07;6.65;;;18.50;66.60;;;;;;5091270;28;20601;-80
2022/10/04 13:58:10;;;;;;;7.20;5.63;;;18.40;67.10;;;;;;5108089;27;20059;-80
2022/10/04 14:01:00;;;;;;;8.15;5.05;;;18.40;67.60;;;;;;5108190;28;20051;-80